Time;durP1;ratioP1;P1;durP2;ratioP2;P2;SDS_P1;SDS_P2;PMS_P1;PMS_P2;Temp;Humidity;BMP_temperature;BMP_pressure;BME280_temperature;BME280_humidity;BME280_pressure;Samples;Min_cycle;Max_cycle;Signal;HPM_P1;HPM_P2
2023/10/16 00:02:13;;;;;;;1.40;1.30;;;;;;;5.25;100.00;102317.06;5056349;28;20017;-92
2023/10/16 00:04:44;;;;;;;1.48;1.20;;;;;;;5.35;100.00;102323.34;5057092;28;20077;-91
2023/10/16 00:07:22;;;;;;;1.60;1.50;;;;;;;5.32;100.00;102318.13;5055704;28;20021;-91
2023/10/16 00:09:53;;;;;;;1.40;1.30;;;;;;;5.39;100.00;102320.94;5056205;28;20029;-91
2023/10/16 00:12:19;;;;;;;1.50;1.40;;;;;;;5.41;100.00;102315.81;5055858;28;20600;-92
2023/10/16 00:14:59;;;;;;;2.10;1.50;;;;;;;5.49;100.00;102331.50;5056110;28;20044;-92
2023/10/16 00:17:31;;;;;;;1.60;1.50;;;;;;;5.54;100.00;102335.97;5055678;28;20476;-91
2023/10/16 00:19:56;;;;;;;1.40;1.30;;;;;;;5.56;100.00;102333.44;5055582;28;20025;-91
2023/10/16 00:22:25;;;;;;;1.57;1.40;;;;;;;5.48;100.00;102322.03;5052567;28;20053;-92
2023/10/16 00:25:06;;;;;;;1.45;1.35;;;;;;;5.44;100.00;102309.88;5061385;28;20036;-91
2023/10/16 00:27:34;;;;;;;1.60;1.40;;;;;;;5.48;100.00;102320.31;5063168;28;20031;-91
2023/10/16 00:30:09;;;;;;;1.92;1.70;;;;;;;5.53;100.00;102321.34;5075894;28;20078;-92
2023/10/16 00:32:44;;;;;;;1.70;1.60;;;;;;;5.53;100.00;102316.19;5074937;28;20068;-92
2023/10/16 00:35:12;;;;;;;1.70;1.60;;;;;;;5.64;100.00;102331.94;5074620;28;20024;-92
2023/10/16 00:37:43;;;;;;;1.35;1.25;;;;;;;5.65;100.00;102325.09;5075126;28;20048;-92
2023/10/16 00:40:31;;;;;;;1.90;1.50;;;;;;;5.69;100.00;102324.34;5075389;28;20496;-91
2023/10/16 00:43:05;;;;;;;1.65;1.55;;;;;;;5.64;100.00;102321.63;5067162;28;20036;-92
2023/10/16 00:45:32;;;;;;;1.67;1.58;;;;;;;5.73;100.00;102333.91;5075303;28;20024;-91
2023/10/16 00:47:58;;;;;;;1.73;1.63;;;;;;;5.67;100.00;102319.16;5075284;28;20017;-92
2023/10/16 00:50:26;;;;;;;2.30;1.67;;;;;;;5.61;100.00;102311.28;5074932;28;20016;-92
2023/10/16 00:52:58;;;;;;;1.70;1.60;;;;;;;5.64;100.00;102311.34;5074625;28;20029;-92
2023/10/16 00:55:29;;;;;;;2.35;1.70;;;;;;;5.77;100.00;102330.59;5064970;28;20032;-92
2023/10/16 00:58:00;;;;;;;1.80;1.40;;;;;;;5.69;100.00;102314.94;5054858;28;20029;-92
2023/10/16 01:00:28;;;;;;;1.70;1.60;;;;;;;5.71;100.00;102313.28;5054639;28;20044;-92
2023/10/16 01:03:05;;;;;;;2.30;1.63;;;;;;;5.74;100.00;102315.06;5054692;28;20044;-91
2023/10/16 01:05:41;;;;;;;1.60;1.50;;;;;;;5.78;100.00;102316.00;5054453;28;20025;-91
2023/10/16 01:08:07;;;;;;;2.15;1.50;;;;;;;5.69;100.00;102307.19;5054569;28;20028;-91
2023/10/16 01:10:40;;;;;;;1.60;1.50;;;;;;;5.67;100.00;102300.25;5055435;28;20458;-92
2023/10/16 01:13:12;;;;;;;1.42;1.33;;;;;;;5.67;100.00;102306.28;5058579;28;20570;-91
2023/10/16 01:15:46;;;;;;;1.60;1.50;;;;;;;5.70;100.00;102313.22;5071970;28;20021;-92
2023/10/16 01:18:17;;;;;;;1.67;1.58;;;;;;;5.63;100.00;102301.84;5055654;28;20099;-92
2023/10/16 01:21:01;;;;;;;1.73;1.40;;;;;;;5.64;100.00;102297.59;5055183;28;20086;-92
2023/10/16 01:23:29;;;;;;;3.60;1.95;;;;;;;5.70;100.00;102308.06;5054017;28;20051;-92
2023/10/16 01:26:08;;;;;;;1.88;1.77;;;;;;;5.74;100.00;102314.19;5054048;28;20021;-92
2023/10/16 01:28:45;;;;;;;2.08;1.70;;;;;;;5.57;100.00;102291.38;5054679;28;20032;-92
2023/10/16 01:31:17;;;;;;;2.35;1.80;;;;;;;5.67;100.00;102305.41;5054440;28;20051;-92
2023/10/16 01:33:51;;;;;;;2.05;1.85;;;;;;;5.54;100.00;102288.72;5054973;28;20017;-91
2023/10/16 01:36:23;;;;;;;2.35;1.80;;;;;;;5.51;100.00;102292.09;5054425;28;20016;-92
2023/10/16 01:38:59;;;;;;;2.97;2.00;;;;;;;5.57;100.00;102309.41;5054138;28;20029;-92
2023/10/16 01:41:30;;;;;;;2.53;1.90;;;;;;;5.49;100.00;102298.03;5054220;28;20032;-92
2023/10/16 01:44:09;;;;;;;2.67;2.00;;;;;;;5.39;100.00;102284.00;5054763;28;20029;-92
2023/10/16 01:46:47;;;;;;;4.10;2.10;;;;;;;5.47;100.00;102305.69;5062550;28;20028;-91
2023/10/16 01:49:24;;;;;;;2.85;2.00;;;;;;;5.45;100.00;102297.06;5066498;28;20027;-92
2023/10/16 01:51:52;;;;;;;;;;;;;;;5.49;100.00;102306.63;5055676;28;20025;-92
2023/10/16 01:54:30;;;;;;;2.95;2.10;;;;;;;5.31;100.00;102278.63;5065625;28;19919;-92
2023/10/16 01:57:01;;;;;;;2.20;2.00;;;;;;;5.35;100.00;102287.31;5073785;28;20016;-92
2023/10/16 01:59:32;;;;;;;2.28;2.00;;;;;;;5.42;100.00;102291.81;5073541;28;20056;-92
2023/10/16 02:01:57;;;;;;;2.22;1.98;;;;;;;5.47;100.00;102305.69;5074246;28;20413;-92
2023/10/16 02:04:58;;;;;;;2.00;1.80;;;;;;;5.48;100.00;102298.84;5073902;28;20048;-91
2023/10/16 02:07:33;;;;;;;2.53;2.00;;;;;;;5.47;100.00;102297.97;5074344;28;20020;-92
2023/10/16 02:10:06;;;;;;;2.15;1.95;;;;;;;5.34;100.00;102275.28;5073836;28;20025;-92
2023/10/16 02:12:44;;;;;;;2.10;1.90;;;;;;;5.32;100.00;102271.78;5074489;28;20035;-92
2023/10/16 02:15:21;;;;;;;3.00;2.10;;;;;;;5.34;100.00;102281.28;5074530;28;20066;-92
2023/10/16 02:17:54;;;;;;;2.65;2.10;;;;;;;5.41;100.00;102297.81;5073734;28;20020;-92
2023/10/16 02:23:44;;;;;;;2.20;2.00;;;;;;;5.32;100.00;102289.81;5052581;28;20056;-92
2023/10/16 02:26:19;;;;;;;2.55;2.20;;;;;;;5.14;100.00;102266.97;5053652;28;20037;-91
2023/10/16 02:28:54;;;;;;;2.05;1.90;;;;;;;5.09;100.00;102265.09;5054185;28;20033;-92
2023/10/16 02:31:25;;;;;;;2.75;2.00;;;;;;;5.17;100.00;102280.78;5053334;28;20025;-92
2023/10/16 02:33:53;;;;;;;3.55;2.17;;;;;;;5.08;100.00;102265.94;5053630;28;20021;-91
2023/10/16 02:36:19;;;;;;;2.45;1.90;;;;;;;5.06;100.00;102257.31;5053630;28;20025;-91
2023/10/16 02:38:55;;;;;;;3.13;2.00;;;;;;;5.14;100.00;102272.09;5053658;28;20056;-91
2023/10/16 02:41:26;;;;;;;;;;;;;;;5.22;100.00;102279.25;5053663;28;20094;-92
2023/10/16 02:44:49;;;;;;;2.60;2.13;;;;;;;5.18;100.00;102274.81;5053577;28;19913;-92
2023/10/16 02:47:21;;;;;;;2.08;1.88;;;;;;;5.13;100.00;102260.06;5053120;28;20477;-92
2023/10/16 02:49:50;;;;;;;2.25;2.00;;;;;;;5.12;100.00;102258.31;5053659;28;20029;-91
2023/10/16 02:52:30;;;;;;;2.40;2.20;;;;;;;5.15;100.00;102259.28;5053004;28;20457;-91
2023/10/16 02:55:01;;;;;;;2.83;2.22;;;;;;;5.17;100.00;102256.78;5053026;28;20029;-92
2023/10/16 02:57:33;;;;;;;2.45;2.13;;;;;;;5.24;100.00;102259.53;5068764;28;20033;-91
2023/10/16 03:02:52;;;;;;;2.60;2.17;;;;;;;5.30;100.00;102252.84;5077656;28;20086;-91
2023/10/16 03:05:44;;;;;;;2.58;2.30;;;;;;;5.47;100.00;102277.38;5077722;28;20016;-91
2023/10/16 03:08:20;;;;;;;2.88;2.30;;;;;;;5.34;100.00;102246.97;5082720;28;20029;-91
2023/10/16 03:10:51;;;;;;;2.55;2.20;;;;;;;5.34;100.00;102246.97;5083692;28;20024;-91
2023/10/16 03:13:24;;;;;;;2.88;2.20;;;;;;;5.39;100.00;102256.56;5076593;28;20032;-91
2023/10/16 03:16:10;;;;;;;2.20;2.00;;;;;;;5.35;100.00;102240.97;5076307;28;20039;-92
2023/10/16 03:18:43;;;;;;;2.30;2.10;;;;;;;5.38;100.00;102248.78;5077534;28;20044;-91
2023/10/16 03:24:19;;;;;;;2.78;2.20;;;;;;;5.49;100.00;102273.13;5062110;28;20079;-91
2023/10/16 03:27:28;;;;;;;2.78;2.22;;;;;;;5.49;100.00;102280.00;5076898;28;20032;-91
2023/10/16 03:29:55;;;;;;;2.20;2.00;;;;;;;5.35;100.00;102262.44;5076841;28;20552;-92
2023/10/16 03:32:24;;;;;;;2.33;2.13;;;;;;;5.32;100.00;102251.19;5076689;28;20346;-92
2023/10/16 03:34:57;;;;;;;2.70;2.33;;;;;;;5.36;100.00;102269.34;5076457;28;20036;-92
2023/10/16 03:37:41;;;;;;;2.60;2.30;;;;;;;5.28;100.00;102260.53;5076476;28;20033;-91
2023/10/16 03:40:24;;;;;;;3.08;2.50;;;;;;;5.33;100.00;102276.97;5076273;28;20484;-92
2023/10/16 03:42:54;;;;;;;3.13;2.40;;;;;;;5.25;100.00;102265.59;5076610;28;20051;-91
2023/10/16 03:45:28;;;;;;;3.00;2.50;;;;;;;5.15;100.00;102251.56;5076296;28;20465;-92
2023/10/16 03:47:57;;;;;;;3.53;2.50;;;;;;;5.11;100.00;102247.16;5076381;28;20029;-91
2023/10/16 03:50:38;;;;;;;4.05;2.40;;;;;;;5.19;100.00;102261.13;5076241;28;20124;-91
2023/10/16 03:53:07;;;;;;;3.30;2.70;;;;;;;5.16;100.00;102258.44;5075966;28;20035;-90
2023/10/16 03:56:05;;;;;;;3.10;2.50;;;;;;;5.16;100.00;102268.75;5076570;28;20031;-91
2023/10/16 03:58:35;;;;;;;3.13;2.50;;;;;;;4.99;100.00;102246.78;5075309;28;20492;-91
2023/10/16 04:01:10;;;;;;;2.90;2.50;;;;;;;5.10;100.00;102266.84;5076332;28;20013;-91
2023/10/16 04:03:47;;;;;;;3.72;2.60;;;;;;;4.95;100.00;102238.13;5076269;28;20027;-92
2023/10/16 04:06:26;;;;;;;2.75;2.40;;;;;;;5.06;100.00;102265.03;5075615;28;20103;-91
2023/10/16 04:09:08;;;;;;;2.78;2.20;;;;;;;4.99;100.00;102257.94;5075512;28;20032;-91
2023/10/16 04:11:54;;;;;;;2.88;2.40;;;;;;;4.85;100.00;102242.09;5075427;28;20511;-91
2023/10/16 04:14:19;;;;;;;3.17;2.40;;;;;;;4.85;100.00;102246.34;5076617;28;20056;-91
2023/10/16 04:16:54;;;;;;;2.90;2.60;;;;;;;4.95;100.00;102267.28;5077134;28;20109;-91
2023/10/16 04:24:31;;;;;;;2.60;2.40;;;;;;;4.90;100.00;102258.53;5073553;28;20546;-92
2023/10/16 04:29:45;;;;;;;2.92;2.42;;;;;;;4.78;100.00;102240.16;5075968;28;20483;-92
2023/10/16 04:35:29;;;;;;;3.78;2.60;;;;;;;4.77;100.00;102231.56;5075734;28;20399;-89
2023/10/16 04:43:48;;;;;;;4.00;2.90;;;;;;;4.79;100.00;102229.00;5075229;28;20109;-90
2023/10/16 04:46:23;;;;;;;3.20;2.42;;;;;;;4.88;100.00;102237.03;5075061;28;20123;-93
2023/10/16 04:48:50;;;;;;;4.00;2.70;;;;;;;4.80;100.00;102210.19;5078311;28;20021;-92
2023/10/16 04:51:17;;;;;;;;;;;;;;;4.98;100.00;102237.31;5076935;28;20025;-92
2023/10/16 04:54:13;;;;;;;;;;;;;;;4.99;100.00;102233.91;5073729;28;19912;-92
2023/10/16 04:57:37;;;;;;;3.55;2.70;;;;;;;4.82;100.00;102211.13;5069967;28;19940;-91
2023/10/16 05:00:12;;;;;;;3.53;2.65;;;;;;;4.92;100.00;102236.28;5073416;28;20033;-87
2023/10/16 05:02:41;;;;;;;3.35;2.67;;;;;;;4.85;100.00;102218.03;5074333;28;20055;-88
2023/10/16 05:08:02;;;;;;;3.72;2.50;;;;;;;4.87;100.00;102218.97;5074962;28;20035;-90
2023/10/16 05:13:39;;;;;;;2.65;2.42;;;;;;;4.88;100.00;102221.63;5074868;28;20059;-92
2023/10/16 05:19:15;;;;;;;3.30;2.50;;;;;;;4.91;100.00;102221.69;5074843;28;20043;-92
2023/10/16 06:16:20;;;;;;;3.47;2.60;;;;;;;5.26;100.00;102221.00;5074937;28;20035;-92
2023/10/16 06:18:47;;;;;;;3.83;2.37;;;;;;;5.26;100.00;102224.44;5073822;28;20040;-92
2023/10/16 06:21:16;;;;;;;3.35;2.50;;;;;;;5.27;100.00;102227.91;5073763;28;20056;-91
2023/10/16 06:23:48;;;;;;;3.47;2.70;;;;;;;5.28;100.00;102223.59;5077704;28;20051;-94
2023/10/16 06:26:16;;;;;;;3.00;2.30;;;;;;;5.27;100.00;102225.31;5081607;28;20091;-94
2023/10/16 06:28:49;;;;;;;2.50;2.30;;;;;;;5.23;100.00;102215.75;5084928;28;20024;-94
2023/10/16 06:31:23;;;;;;;4.00;2.50;;;;;;;5.22;100.00;102225.19;5073936;28;20359;-91
2023/10/16 06:33:54;;;;;;;3.42;2.70;;;;;;;5.23;100.00;102228.63;5079282;28;20029;-95
2023/10/16 06:36:24;;;;;;;3.45;2.50;;;;;;;5.23;100.00;102228.63;5090034;28;20029;-96
2023/10/16 06:38:52;;;;;;;3.05;2.40;;;;;;;5.27;100.00;102233.03;5092971;28;20461;-96
2023/10/16 06:41:20;;;;;;;4.05;2.63;;;;;;;5.25;100.00;102227.81;5085099;28;20028;-90
2023/10/16 06:43:47;;;;;;;3.67;2.75;;;;;;;5.27;100.00;102230.47;5076296;28;20559;-85
2023/10/16 06:46:21;;;;;;;2.88;2.40;;;;;;;5.24;100.00;102225.22;5075392;28;20058;-86
2023/10/16 06:48:48;;;;;;;4.15;2.85;;;;;;;5.32;100.00;102234.03;5077080;28;20070;-89
2023/10/16 06:51:15;;;;;;;;;;;;;;;5.36;100.00;102230.72;5077543;28;20025;-91
2023/10/16 06:53:40;;;;;;;4.47;2.80;;;;;;;5.36;100.00;102223.00;5076629;28;19915;-90
2023/10/16 06:56:05;;;;;;;3.25;2.63;;;;;;;5.45;100.00;102227.56;5077240;28;20020;-90
2023/10/16 06:58:34;;;;;;;3.60;2.70;;;;;;;5.49;100.00;102231.94;5078984;28;20028;-90
2023/10/16 07:01:10;;;;;;;2.83;2.30;;;;;;;5.49;100.00;102223.34;5076040;28;20036;-89
2023/10/16 07:03:38;;;;;;;3.55;2.50;;;;;;;5.51;100.00;102221.69;5076723;28;20036;-91
2023/10/16 07:06:05;;;;;;;3.08;2.40;;;;;;;5.55;100.00;102232.13;5075677;28;20059;-88
2023/10/16 07:08:33;;;;;;;2.40;2.20;;;;;;;5.48;100.00;102222.47;5076215;28;20021;-89
2023/10/16 07:11:03;;;;;;;3.78;2.65;;;;;;;5.59;100.00;102233.06;5076500;28;20465;-89
2023/10/16 07:13:40;;;;;;;3.45;2.42;;;;;;;5.47;100.00;102215.56;5072423;28;20063;-89
2023/10/16 07:16:07;;;;;;;2.85;2.50;;;;;;;5.64;100.00;102228.06;5076070;28;20550;-89
2023/10/16 07:18:33;;;;;;;4.63;2.65;;;;;;;5.70;100.00;102234.25;5076361;28;20024;-88
2023/10/16 07:21:07;;;;;;;2.95;2.40;;;;;;;5.76;100.00;102237.81;5075452;28;20027;-89
2023/10/16 07:23:41;;;;;;;2.90;2.40;;;;;;;5.66;100.00;102219.53;5057172;28;20515;-88
2023/10/16 07:26:16;;;;;;;4.22;2.88;;;;;;;5.74;100.00;102230.03;5073004;28;20124;-88
2023/10/16 07:28:56;;;;;;;3.20;2.63;;;;;;;5.78;100.00;102224.16;5075026;28;20040;-87
2023/10/16 07:31:24;;;;;;;3.17;2.60;;;;;;;5.89;100.00;102232.16;5075575;28;20016;-89
2023/10/16 07:33:59;;;;;;;3.87;2.50;;;;;;;6.00;100.00;102240.22;5075980;28;20025;-89
2023/10/16 07:36:24;;;;;;;2.75;2.38;;;;;;;5.92;100.00;102219.34;5075060;28;20030;-90
2023/10/16 07:38:50;;;;;;;2.90;2.30;;;;;;;6.05;100.00;102241.19;5076569;28;20020;-91
2023/10/16 07:41:18;;;;;;;2.47;2.10;;;;;;;6.02;100.00;102235.97;5074971;28;20062;-91
2023/10/16 07:43:46;;;;;;;2.10;1.90;;;;;;;6.02;100.00;102228.25;5076341;28;20099;-90
2023/10/16 07:48:42;;;;;;;2.93;2.37;;;;;;;6.17;100.00;102222.59;5075266;28;20121;-90
2023/10/16 07:51:31;;;;;;;3.05;2.30;;;;;;;6.26;100.00;102221.94;5075723;28;20028;-89
2023/10/16 07:54:00;;;;;;;4.43;3.00;;;;;;;6.19;100.00;102215.78;5060810;28;20032;-90
2023/10/16 07:56:25;;;;;;;3.50;2.88;;;;;;;6.29;100.00;102225.50;5075137;28;20430;-88
2023/10/16 07:59:20;;;;;;;3.17;2.70;;;;;;;6.31;100.00;102223.78;5075198;28;20048;-88
2023/10/16 08:01:57;;;;;;;4.88;2.88;;;;;;;6.27;100.00;102211.69;5052633;28;20048;-89
2023/10/16 08:07:16;;;;;;;3.80;3.10;;;;;;;6.40;100.00;102222.31;5075623;28;20178;-88
2023/10/16 08:12:19;;;;;;;2.95;2.60;;;;;;;6.53;100.00;102210.56;5075100;28;20032;-93
2023/10/16 08:14:54;;;;;;;3.50;2.40;;;;;;;6.67;100.00;102216.03;5075302;28;20130;-87
2023/10/16 08:17:23;;;;;;;2.33;2.10;;;;;;;6.68;100.00;102200.59;5073930;28;20028;-90
2023/10/16 08:19:50;;;;;;;2.60;2.40;;;;;;;6.89;100.00;102226.00;5074573;28;20035;-87
2023/10/16 08:22:15;;;;;;;2.45;2.10;;;;;;;6.92;100.00;102218.34;5073973;28;20021;-87
2023/10/16 08:24:57;;;;;;;2.67;2.28;;;;;;;7.03;100.00;102223.75;5074745;28;20036;-88
2023/10/16 08:27:41;;;;;;;2.40;2.10;;;;;;;7.09;100.00;102213.53;5072407;28;20176;-88
2023/10/16 08:30:33;;;;;;;3.00;2.20;;;;;;;7.20;100.00;102229.25;5074244;28;20044;-87
2023/10/16 08:33:07;;;;;;;4.22;2.70;;;;;;;7.26;100.00;102224.22;5074481;28;20032;-87
2023/10/16 08:35:38;;;;;;;3.05;2.53;;;;;;;7.33;100.00;102216.59;5073759;28;20104;-85
2023/10/16 08:38:25;;;;;;;3.67;2.70;;;;;;;7.46;100.00;102220.31;5069215;28;20074;-86
2023/10/16 08:40:57;;;;;;;6.60;3.35;;;;;;;7.57;100.00;102229.13;5074253;28;20028;-87
2023/10/16 08:43:39;;;;;;;3.90;2.90;;;;;;;7.62;100.00;102221.47;5074032;28;20412;-86
2023/10/16 08:46:30;;;;;;;4.07;2.75;;;;;;;7.85;100.00;102225.34;5073208;28;20020;-86
2023/10/16 08:48:57;;;;;;;4.07;2.40;;;;;;;7.98;100.00;102226.44;5074164;28;20027;-86
2023/10/16 08:51:31;;;;;;;2.50;2.30;;;;;;;8.00;100.00;102206.66;5073804;28;20039;-86
2023/10/16 08:54:02;;;;;;;2.47;2.25;;;;;;;8.15;100.00;102221.56;5073396;28;20029;-86
2023/10/16 08:56:40;;;;;;;1.95;1.77;;;;;;;8.15;100.00;102211.22;5073905;28;20028;-86
2023/10/16 08:59:15;;;;;;;2.40;2.05;;;;;;;8.26;100.00;102202.75;5072950;28;20025;-86
2023/10/16 09:01:40;;;;;;;2.03;1.80;;;;;;;8.45;100.00;102207.38;5073581;28;20090;-86
2023/10/16 09:04:25;;;;;;;2.27;2.00;;;;;;;8.67;100.00;102212.91;5073305;28;20032;-86
2023/10/16 09:06:50;;;;;;;2.53;2.33;;;;;;;8.76;100.00;102220.81;5072901;28;20024;-86
2023/10/16 09:09:16;;;;;;;2.17;1.97;;;;;;;9.00;100.00;102223.72;5073494;28;20100;-86
2023/10/16 09:11:46;;;;;;;1.87;1.77;;;;;;;9.19;100.00;102238.63;5073651;28;20468;-86
2023/10/16 09:14:13;;;;;;;2.10;1.90;;;;;;;9.39;100.00;102231.13;5072464;28;20305;-86
2023/10/16 09:16:43;;;;;;;2.55;2.10;;;;;;;9.54;100.00;102237.34;5073661;28;20059;-86
2023/10/16 09:19:11;;;;;;;2.53;2.30;;;;;;;9.66;100.00;102226.22;5073345;28;20035;-87
2023/10/16 09:21:39;;;;;;;2.60;2.10;;;;;;;9.85;100.00;102233.34;5073015;28;20048;-87
2023/10/16 09:24:05;;;;;;;1.80;1.70;;;;;;;9.96;100.00;102233.47;5073185;28;20052;-85
2023/10/16 09:26:37;;;;;;;2.72;1.98;;;;;;;10.05;100.00;102238.72;5072752;28;20035;-86
2023/10/16 09:29:14;;;;;;;4.60;2.80;;;;;;;10.13;96.63;102244.00;5071796;28;20021;-80
2023/10/16 09:31:43;;;;;;;4.93;2.88;;;;;;;10.18;100.00;102234.53;5072978;28;20036;-86
2023/10/16 09:34:09;;;;;;;4.00;2.63;;;;;;;10.33;100.00;102233.78;5074167;28;20020;-92
2023/10/16 09:36:36;;;;;;;4.13;2.20;;;;;;;10.50;100.00;102231.34;5074348;28;20048;-94
2023/10/16 09:39:34;;;;;;;2.33;2.13;;;;;;;10.73;100.00;102232.34;5074398;28;20050;-94
2023/10/16 09:42:15;;;;;;;2.00;1.80;;;;;;;10.88;100.00;102226.38;5074524;28;20032;-95
2023/10/16 09:44:44;;;;;;;1.98;1.70;;;;;;;11.05;100.00;102229.97;5073567;28;20028;-85
2023/10/16 09:50:01;;;;;;;1.90;1.70;;;;;;;11.33;100.00;102230.06;5045824;28;20638;-86
2023/10/16 09:52:39;;;;;;;1.55;1.40;;;;;;;11.39;100.00;102219.69;5072858;28;20473;-86
2023/10/16 09:55:05;;;;;;;1.30;1.20;;;;;;;11.48;96.60;102224.06;5071914;28;20102;-87
2023/10/16 09:57:52;;;;;;;4.07;2.30;;;;;;;11.48;96.44;102223.19;5073019;28;20032;-86
2023/10/16 10:00:38;;;;;;;5.07;2.80;;;;;;;11.36;92.54;102209.28;5072845;28;20362;-86
2023/10/16 10:03:22;;;;;;;3.10;2.40;;;;;;;11.40;94.81;102216.25;5071608;28;20020;-83
2023/10/16 10:06:08;;;;;;;2.78;2.10;;;;;;;11.58;92.39;102233.63;5072696;28;20274;-89
2023/10/16 10:08:53;;;;;;;1.98;1.83;;;;;;;11.69;95.89;102227.59;5070827;28;20032;-88
2023/10/16 10:14:29;;;;;;;2.20;1.65;;;;;;;12.00;92.32;102228.50;5072928;28;20036;-88
2023/10/16 10:17:19;;;;;;;2.78;2.20;;;;;;;11.95;83.11;102226.75;5072652;28;20021;-89
2023/10/16 10:19:55;;;;;;;4.85;2.30;;;;;;;11.87;86.95;102226.75;5073261;28;20103;-89
2023/10/16 10:22:38;;;;;;;2.95;1.90;;;;;;;11.86;89.74;102212.88;5072937;28;20529;-89
2023/10/16 10:25:37;;;;;;;2.95;2.10;;;;;;;11.95;85.15;102229.34;5072006;28;20507;-88
2023/10/16 10:28:22;;;;;;;2.10;1.90;;;;;;;11.87;89.03;102204.19;5073105;28;20029;-89
2023/10/16 10:30:49;;;;;;;1.52;1.42;;;;;;;12.12;90.03;102227.69;5072587;28;20060;-88
2023/10/16 10:33:36;;;;;;;1.63;1.48;;;;;;;12.17;82.46;102233.72;5072442;28;20063;-89
2023/10/16 10:36:27;;;;;;;2.25;1.80;;;;;;;12.17;85.77;102225.06;5073083;28;20029;-89
2023/10/16 10:39:36;;;;;;;1.98;1.50;;;;;;;12.22;87.42;102225.06;5072475;28;20110;-89
2023/10/16 10:42:04;;;;;;;1.60;1.40;;;;;;;12.27;88.70;102220.75;5073050;28;20384;-89
2023/10/16 10:44:42;;;;;;;2.08;1.60;;;;;;;12.33;84.88;102220.72;5072301;28;20025;-88
2023/10/16 10:47:30;;;;;;;1.48;1.25;;;;;;;12.42;89.69;102223.31;5072383;28;20032;-88
2023/10/16 10:49:59;;;;;;;1.00;1.00;;;;;;;12.52;90.10;102212.03;5072711;28;20052;-89
2023/10/16 10:52:27;;;;;;;1.10;1.00;;;;;;;12.59;88.66;102209.44;5072351;28;20035;-89
2023/10/16 10:54:59;;;;;;;1.20;1.00;;;;;;;12.65;90.20;102209.41;5072804;28;20059;-89
2023/10/16 10:57:26;;;;;;;2.38;1.10;;;;;;;12.71;90.29;102209.41;5072810;28;20488;-89
2023/10/16 10:59:55;;;;;;;0.77;0.77;;;;;;;12.74;90.92;102204.16;5072505;28;20384;-88
2023/10/16 11:04:53;;;;;;;1.40;1.10;;;;;;;12.87;88.65;102204.13;5076211;28;20255;-88
2023/10/16 11:07:28;;;;;;;1.97;1.00;;;;;;;12.90;89.72;102201.53;5073706;28;20037;-89
2023/10/16 11:09:57;;;;;;;1.17;1.08;;;;;;;12.92;81.10;102202.41;5072489;28;20039;-88
2023/10/16 11:12:26;;;;;;;0.95;0.70;;;;;;;12.88;82.87;102198.06;5071786;28;20044;-88
2023/10/16 11:14:53;;;;;;;2.35;1.45;;;;;;;12.77;82.56;102208.53;5072683;28;20032;-88
2023/10/16 11:17:32;;;;;;;1.27;0.93;;;;;;;12.65;84.28;102198.97;5071796;28;20032;-89
2023/10/16 11:19:57;;;;;;;1.30;1.10;;;;;;;12.56;85.14;102193.78;5068754;28;20037;-89
2023/10/16 11:22:27;;;;;;;0.93;0.80;;;;;;;12.54;85.49;102192.94;5073302;28;20019;-88
2023/10/16 11:24:52;;;;;;;1.48;1.20;;;;;;;12.50;76.39;102189.47;5075475;28;20045;-91
2023/10/16 11:27:19;;;;;;;1.20;1.10;;;;;;;12.49;82.71;102190.34;5075935;28;20542;-87
2023/10/16 11:29:46;;;;;;;;;;;;;;;12.52;85.88;102185.97;5056276;28;20098;-89
2023/10/16 11:32:14;;;;;;;1.10;1.00;;;;;;;12.56;87.07;102180.78;5056000;28;20006;-88
2023/10/16 11:34:48;;;;;;;1.13;0.70;;;;;;;12.60;87.11;102177.31;5055347;28;20021;-89
2023/10/16 11:37:14;;;;;;;1.17;0.95;;;;;;;12.59;82.76;102184.22;5055810;28;20041;-89
2023/10/16 11:39:41;;;;;;;0.80;0.80;;;;;;;12.56;86.77;102176.41;5073268;28;20039;-89
2023/10/16 11:42:08;;;;;;;1.15;0.68;;;;;;;12.55;87.22;102172.13;5075057;28;20024;-88
2023/10/16 11:44:37;;;;;;;1.30;0.90;;;;;;;12.51;85.25;102176.44;5075734;28;20025;-87
2023/10/16 11:47:08;;;;;;;0.85;0.85;;;;;;;12.46;85.03;102170.38;5075177;28;20016;-87
2023/10/16 11:49:37;;;;;;;0.73;0.70;;;;;;;12.43;86.76;102162.56;5074979;28;20030;-88
2023/10/16 11:52:23;;;;;;;0.77;0.57;;;;;;;12.46;86.91;102161.69;5075095;28;20021;-87
2023/10/16 11:54:53;;;;;;;0.30;0.30;;;;;;;12.47;87.37;102160.81;5074706;28;20028;-87
2023/10/16 11:57:18;;;;;;;1.52;0.80;;;;;;;12.43;79.97;102161.72;5074741;28;20013;-87
2023/10/16 11:59:44;;;;;;;0.73;0.73;;;;;;;12.36;81.89;102159.09;5075294;28;20115;-88
2023/10/16 12:02:13;;;;;;;0.50;0.50;;;;;;;12.34;82.62;102160.00;5074292;28;20082;-88
2023/10/16 12:04:42;;;;;;;1.08;0.98;;;;;;;12.33;83.23;102158.25;5075195;28;20024;-88
2023/10/16 12:07:08;;;;;;;1.58;0.77;;;;;;;12.37;84.73;102160.00;5075527;28;20032;-88
2023/10/16 12:09:38;;;;;;;0.65;0.65;;;;;;;12.39;82.42;102154.78;5075854;28;20024;-88
2023/10/16 12:12:06;;;;;;;1.05;0.75;;;;;;;12.40;85.15;102146.94;5075271;28;20024;-88
2023/10/16 12:14:37;;;;;;;0.70;0.50;;;;;;;12.45;85.87;102136.53;5075069;28;20032;-88
2023/10/16 12:17:06;;;;;;;1.20;0.50;;;;;;;12.54;86.63;102144.34;5074040;28;20116;-87
2023/10/16 12:19:33;;;;;;;0.82;0.60;;;;;;;12.56;87.10;102132.16;5075026;28;20052;-88
2023/10/16 12:22:00;;;;;;;0.68;0.40;;;;;;;12.67;87.45;102137.34;5075229;28;20028;-88
2023/10/16 12:24:26;;;;;;;0.45;0.45;;;;;;;12.69;87.23;102122.56;5073808;28;20053;-88
2023/10/16 12:26:52;;;;;;;0.50;0.50;;;;;;;12.76;86.50;102129.47;5075341;28;20372;-88
2023/10/16 12:29:17;;;;;;;2.13;1.25;;;;;;;12.75;76.76;102138.16;5074767;28;20024;-88
2023/10/16 12:31:43;;;;;;;2.47;1.53;;;;;;;12.68;76.67;102141.69;5073866;28;20074;-87
2023/10/16 12:34:12;;;;;;;2.50;1.50;;;;;;;12.63;81.20;102135.59;5073802;28;20052;-87
2023/10/16 12:36:43;;;;;;;1.80;1.10;;;;;;;12.71;83.60;102131.25;5074616;28;20078;-86
2023/10/16 12:39:24;;;;;;;1.90;1.00;;;;;;;12.70;82.05;102126.91;5074348;28;20027;-87
2023/10/16 12:41:55;;;;;;;1.30;0.98;;;;;;;12.75;83.15;102121.69;5074639;28;20024;-87
2023/10/16 12:44:23;;;;;;;3.30;1.27;;;;;;;12.76;82.15;102119.06;5073205;28;20025;-87
2023/10/16 12:46:50;;;;;;;3.55;1.42;;;;;;;12.75;74.56;102119.09;5072401;28;20032;-87
2023/10/16 12:49:15;;;;;;;1.58;1.30;;;;;;;12.75;81.02;102117.31;5074091;28;20476;-87
2023/10/16 12:51:42;;;;;;;2.30;1.70;;;;;;;12.67;80.85;102104.34;5073639;28;20052;-87
2023/10/16 12:54:09;;;;;;;2.55;1.20;;;;;;;12.73;82.08;102106.03;5073972;28;20087;-87
2023/10/16 12:56:38;;;;;;;1.10;1.00;;;;;;;12.82;82.38;102120.78;5074160;28;20479;-87
2023/10/16 12:59:04;;;;;;;0.63;0.63;;;;;;;12.85;82.19;102114.69;5073113;28;20090;-86
2023/10/16 13:01:29;;;;;;;2.33;1.50;;;;;;;12.73;71.68;102107.78;5073890;28;20024;-86
2023/10/16 13:04:06;;;;;;;3.27;2.40;;;;;;;12.58;72.65;102119.16;5073834;28;20493;-87
2023/10/16 13:06:32;;;;;;;2.00;1.80;;;;;;;12.63;79.00;102115.66;5073244;28;20389;-87
2023/10/16 13:08:58;;;;;;;3.13;1.90;;;;;;;12.72;79.33;102111.28;5073414;28;20025;-86
2023/10/16 13:11:24;;;;;;;3.13;1.93;;;;;;;12.77;79.42;102110.38;5073587;28;20024;-88
2023/10/16 13:13:50;;;;;;;4.38;1.77;;;;;;;12.80;77.13;102109.50;5072777;28;20024;-87
2023/10/16 13:16:24;;;;;;;1.48;1.38;;;;;;;12.90;80.19;102118.16;5073298;28;20484;-87
2023/10/16 13:18:50;;;;;;;1.50;1.40;;;;;;;12.97;75.66;102114.63;5067440;22;20048;-85
2023/10/16 13:21:21;;;;;;;4.00;2.13;;;;;;;12.95;76.62;102117.25;5053122;28;20025;-87
2023/10/16 13:23:46;;;;;;;2.77;1.80;;;;;;;12.91;77.96;102102.50;5053621;28;20079;-87
2023/10/16 13:26:11;;;;;;;3.40;1.60;;;;;;;12.94;78.62;102099.03;5052248;28;20032;-87
2023/10/16 13:28:41;;;;;;;2.53;1.30;;;;;;;12.82;79.46;102092.13;5053764;28;20027;-87
2023/10/16 13:31:08;;;;;;;1.20;1.02;;;;;;;12.85;79.97;102094.72;5053289;28;20029;-86
2023/10/16 13:33:34;;;;;;;1.05;1.05;;;;;;;12.94;79.42;102106.84;5052764;28;20025;-87
2023/10/16 13:36:03;;;;;;;2.67;1.90;;;;;;;12.81;74.34;102098.19;5053130;28;20128;-86
2023/10/16 13:38:31;;;;;;;1.65;1.55;;;;;;;12.75;75.46;102099.09;5053387;28;20021;-86
2023/10/16 13:40:56;;;;;;;1.77;1.23;;;;;;;12.79;77.45;102102.53;5053864;28;20025;-88